createdAt,value
2019-05-22T00:01:13.941Z,97715.16
2019-05-22T00:03:47.369Z,97716.05
2019-05-22T00:06:17.369Z,97719.02
2019-05-22T00:08:47.683Z,97718.94
2019-05-22T00:11:17.335Z,97710.22
2019-05-22T00:13:47.848Z,97709.80
2019-05-22T00:16:18.492Z,97716.72
2019-05-22T00:18:47.454Z,97723.52
2019-05-22T00:21:16.712Z,97723.52
2019-05-22T00:23:46.777Z,97721.09
2019-05-22T00:26:15.411Z,97726.59
2019-05-22T00:28:44.379Z,97728.97
2019-05-22T00:31:14.342Z,97735.93
2019-05-22T00:33:44.193Z,97734.63
2019-05-22T00:36:13.424Z,97727.09
2019-05-22T00:38:42.338Z,97729.45
2019-05-22T00:41:13.271Z,97732.89
2019-05-22T00:43:44.604Z,97728.63
2019-05-22T00:46:20.567Z,97738.41
2019-05-22T00:48:49.589Z,97739.14
2019-05-22T00:51:22.522Z,97726.94
2019-05-22T00:54:09.383Z,97733.47
2019-05-22T00:56:57.311Z,97739.39
2019-05-22T00:59:31.535Z,97735.33
2019-05-22T01:02:04.058Z,97732.19
2019-05-22T01:04:35.148Z,97738.65
2019-05-22T01:07:07.574Z,97742.70
2019-05-22T01:09:43.489Z,97748.15
2019-05-22T01:12:18.828Z,97749.16
2019-05-22T01:14:48.884Z,97752.09
2019-05-22T01:17:19.411Z,97746.04
2019-05-22T01:19:49.051Z,97745.63
2019-05-22T01:22:17.828Z,97751.28
2019-05-22T01:24:48.297Z,97751.95
2019-05-22T01:27:18.276Z,97751.73
2019-05-22T01:29:48.095Z,97744.55
2019-05-22T01:32:20.733Z,97750.08
2019-05-22T01:34:50.448Z,97751.13
2019-05-22T01:37:20.131Z,97755.20
2019-05-22T01:39:56.133Z,97755.83
2019-05-22T01:42:29.329Z,97751.26
2019-05-22T01:45:05.807Z,97752.68
2019-05-22T01:47:42.698Z,97751.94
2019-05-22T01:50:16.041Z,97745.45
2019-05-22T01:52:46.293Z,97744.87
2019-05-22T01:55:15.256Z,97752.30
2019-05-22T01:57:44.240Z,97752.47
2019-05-22T02:00:13.375Z,97752.50
2019-05-22T02:02:42.867Z,97758.95
2019-05-22T02:05:12.102Z,97753.21
2019-05-22T02:07:42.092Z,97756.80
2019-05-22T02:10:14.732Z,97756.80
2019-05-22T02:12:52.215Z,97761.28
2019-05-22T02:15:21.347Z,97749.38
2019-05-22T02:17:50.397Z,97754.31
2019-05-22T02:20:19.951Z,97746.34
2019-05-22T02:22:49.955Z,97758.09
2019-05-22T02:25:19.077Z,97740.58
2019-05-22T02:27:48.115Z,97734.75
2019-05-22T02:30:18.971Z,97736.66
2019-05-22T02:32:48.604Z,97742.92
2019-05-22T02:35:16.998Z,97737.55
2019-05-22T02:37:45.737Z,97740.95
2019-05-22T02:40:23.775Z,97743.09
2019-05-22T02:42:53.472Z,97744.44
2019-05-22T02:45:22.526Z,97753.44
2019-05-22T02:47:50.890Z,97749.47
2019-05-22T02:50:19.916Z,97751.17
2019-05-22T02:52:49.480Z,97759.14
2019-05-22T02:55:17.936Z,97763.26
2019-05-22T02:57:46.839Z,97762.52
2019-05-22T03:00:16.479Z,97773.34
2019-05-22T03:02:51.278Z,97784.89
2019-05-22T03:05:20.907Z,97773.56
2019-05-22T03:07:49.227Z,97774.73
2019-05-22T03:10:19.559Z,97784.04
2019-05-22T03:12:49.988Z,97784.49
2019-05-22T03:15:22.469Z,97788.77
2019-05-22T03:17:55.809Z,97787.84
2019-05-22T03:20:24.598Z,97787.44
2019-05-22T03:23:09.762Z,97782.67
2019-05-22T03:25:38.467Z,97779.17
2019-05-22T03:28:08.334Z,97783.19
2019-05-22T03:30:39.455Z,97791.43
2019-05-22T03:33:09.551Z,97794.62
2019-05-22T03:35:47.491Z,97797.55
2019-05-22T03:38:19.209Z,97786.20
2019-05-22T03:40:50.893Z,97787.88
2019-05-22T03:43:22.459Z,97799.09
2019-05-22T03:45:51.016Z,97798.14
2019-05-22T03:48:21.433Z,97795.78
2019-05-22T03:50:49.907Z,97795.73
2019-05-22T03:53:19.114Z,97784.27
2019-05-22T03:55:49.931Z,97789.84
2019-05-22T03:58:18.948Z,97795.35
2019-05-22T04:00:49.821Z,97798.95
2019-05-22T04:03:18.111Z,97806.83
2019-05-22T04:05:47.588Z,97806.11
2019-05-22T04:08:18.638Z,97809.94
2019-05-22T04:11:00.027Z,97806.27
2019-05-22T04:13:28.966Z,97808.03
2019-05-22T04:15:57.586Z,97821.28
2019-05-22T04:18:26.985Z,97806.89
2019-05-22T04:20:56.823Z,97812.34
2019-05-22T04:23:25.379Z,97816.37
2019-05-22T04:25:55.454Z,97813.31
2019-05-22T04:28:23.870Z,97808.72
2019-05-22T04:30:52.876Z,97815.05
2019-05-22T04:33:21.640Z,97818.66
2019-05-22T04:35:50.202Z,97819.88
2019-05-22T04:38:18.681Z,97819.67
2019-05-22T04:40:48.921Z,97822.84
2019-05-22T04:43:20.426Z,97832.34
2019-05-22T04:45:50.253Z,97828.37
2019-05-22T04:48:19.811Z,97825.11
2019-05-22T04:50:50.046Z,97826.45
2019-05-22T04:53:18.796Z,97836.91
2019-05-22T04:55:47.893Z,97834.16
2019-05-22T04:58:17.930Z,97836.73
2019-05-22T05:00:46.398Z,97835.03
2019-05-22T05:03:16.650Z,97834.16
2019-05-22T05:05:54.143Z,97840.45
2019-05-22T05:08:24.108Z,97843.41
2019-05-22T05:10:56.171Z,97851.44
2019-05-22T05:13:24.957Z,97848.75
2019-05-22T05:15:53.260Z,97855.25
2019-05-22T05:18:21.997Z,97851.80
2019-05-22T05:20:50.354Z,97849.14
2019-05-22T05:23:19.348Z,97844.09
2019-05-22T05:25:47.732Z,97846.92
2019-05-22T05:28:16.513Z,97844.17
2019-05-22T05:30:44.896Z,97846.87
2019-05-22T05:33:13.282Z,97856.59
2019-05-22T05:35:42.330Z,97847.46
2019-05-22T05:38:10.918Z,97854.09
2019-05-22T05:40:41.825Z,97853.15
2019-05-22T05:43:11.828Z,97862.05
2019-05-22T05:45:42.373Z,97875.39
2019-05-22T05:48:14.100Z,97872.34
2019-05-22T05:51:02.033Z,97872.34
2019-05-22T05:53:31.922Z,97871.92
2019-05-22T05:56:16.777Z,97872.96
2019-05-22T05:58:46.086Z,97872.96
2019-05-22T06:01:19.192Z,97868.58
2019-05-22T06:03:47.503Z,97878.75
2019-05-22T06:06:26.023Z,97878.22
2019-05-22T06:08:56.388Z,97886.22
2019-05-22T06:11:39.958Z,97875.09
2019-05-22T06:14:10.195Z,97867.39
2019-05-22T06:17:01.357Z,97893.19
2019-05-22T06:19:31.592Z,97880.45
2019-05-22T06:22:00.321Z,97890.97
2019-05-22T06:24:36.631Z,97892.23
2019-05-22T06:27:11.819Z,97899.25
2019-05-22T06:29:56.050Z,97899.48
2019-05-22T06:32:57.681Z,97892.22
2019-05-22T06:35:30.024Z,97906.95
2019-05-22T06:38:18.655Z,97906.95
2019-05-22T06:40:47.061Z,97913.84
2019-05-22T06:43:29.240Z,97906.83
2019-05-22T06:45:58.035Z,97917.86
2019-05-22T06:48:26.359Z,97917.79
2019-05-22T06:50:54.719Z,97907.56
2019-05-22T06:53:23.116Z,97912.10
2019-05-22T06:55:51.486Z,97914.95
2019-05-22T06:58:20.737Z,97917.68
2019-05-22T07:00:49.105Z,97918.00
2019-05-22T07:03:17.862Z,97928.94
2019-05-22T07:05:46.516Z,97916.83
2019-05-22T07:08:14.907Z,97934.44
2019-05-22T07:10:43.376Z,97924.64
2019-05-22T07:13:13.580Z,97932.66
2019-05-22T07:15:43.501Z,97939.21
2019-05-22T07:18:14.655Z,97934.36
2019-05-22T07:20:43.596Z,97931.19
2019-05-22T07:23:13.182Z,97926.55
2019-05-22T07:25:44.591Z,97934.52
2019-05-22T07:28:14.295Z,97935.63
2019-05-22T07:30:42.809Z,97935.53
2019-05-22T07:33:12.284Z,97943.87
2019-05-22T07:36:04.763Z,97944.31
2019-05-22T07:38:12.616Z,97945.06
2019-05-22T07:40:41.383Z,97946.86
2019-05-22T07:43:10.048Z,97953.74
2019-05-22T07:45:39.432Z,97947.70
2019-05-22T07:48:09.708Z,97949.08
2019-05-22T07:50:42.438Z,97956.63
2019-05-22T07:53:12.058Z,97959.49
2019-05-22T07:55:40.430Z,97952.80
2019-05-22T07:58:14.543Z,97954.38
2019-05-22T08:00:46.898Z,97960.34
2019-05-22T08:03:15.203Z,97954.72
2019-05-22T08:05:46.672Z,97956.52
2019-05-22T08:08:18.699Z,97958.97
2019-05-22T08:10:48.072Z,97957.17
2019-05-22T08:13:16.501Z,97967.09
2019-05-22T08:15:47.870Z,97960.27
2019-05-22T08:18:16.601Z,97981.11
2019-05-22T08:20:45.683Z,97973.95
2019-05-22T08:23:14.247Z,97980.34
2019-05-22T08:25:42.708Z,97978.91
2019-05-22T08:28:12.339Z,97987.28
2019-05-22T08:30:41.709Z,97983.42
2019-05-22T08:33:11.461Z,97983.30
2019-05-22T08:35:39.770Z,97991.25
2019-05-22T08:38:09.916Z,97987.48
2019-05-22T08:40:39.442Z,97986.84
2019-05-22T08:43:08.690Z,98001.16
2019-05-22T08:45:38.316Z,97980.07
2019-05-22T08:48:07.646Z,97981.95
2019-05-22T08:50:37.577Z,97999.26
2019-05-22T08:53:07.115Z,98001.10
2019-05-22T08:55:36.318Z,98011.65
2019-05-22T08:58:05.867Z,97996.07
2019-05-22T09:00:35.376Z,98010.00
2019-05-22T09:03:04.389Z,98014.39
2019-05-22T09:05:33.632Z,98009.94
2019-05-22T09:08:02.588Z,98017.38
2019-05-22T09:10:31.849Z,98016.36
2019-05-22T09:13:00.171Z,98018.38
2019-05-22T09:15:29.042Z,98014.50
2019-05-22T09:17:57.383Z,98011.87
2019-05-22T09:20:25.821Z,98011.67
2019-05-22T09:22:54.763Z,98000.97
2019-05-22T09:25:24.184Z,98009.73
2019-05-22T09:27:52.483Z,98019.41
2019-05-22T09:30:20.934Z,98019.13
2019-05-22T09:32:49.231Z,98030.14
2019-05-22T09:35:17.896Z,98010.23
2019-05-22T09:37:46.201Z,98027.59
2019-05-22T09:40:14.848Z,98026.61
2019-05-22T09:42:43.730Z,98039.90
2019-05-22T09:45:12.362Z,98048.63
2019-05-22T09:47:42.390Z,98044.81
2019-05-22T09:50:12.494Z,98047.89
2019-05-22T09:52:56.413Z,98070.44
2019-05-22T09:55:13.966Z,98053.80
2019-05-22T09:57:42.556Z,98053.80
2019-05-22T10:00:12.483Z,98066.58
2019-05-22T10:02:42.841Z,98062.91
2019-05-22T10:05:13.302Z,98083.41
2019-05-22T10:07:57.804Z,98077.31
2019-05-22T10:10:14.769Z,98080.66
2019-05-22T10:12:43.954Z,98078.06
2019-05-22T10:15:13.163Z,98083.86
2019-05-22T10:17:47.743Z,98089.38
2019-05-22T10:20:17.094Z,98092.48
2019-05-22T10:22:46.346Z,98083.21
2019-05-22T10:25:17.101Z,98090.70
2019-05-22T10:27:47.130Z,98095.87
2019-05-22T10:30:19.536Z,98104.38
2019-05-22T10:32:48.773Z,98102.07
2019-05-22T10:35:17.567Z,98111.63
2019-05-22T10:37:45.998Z,98103.04
2019-05-22T10:40:15.658Z,98107.73
2019-05-22T10:42:45.195Z,98103.89
2019-05-22T10:45:14.134Z,98109.67
2019-05-22T10:47:44.365Z,98107.75
2019-05-22T10:50:13.896Z,98112.97
2019-05-22T10:52:42.282Z,98105.02
2019-05-22T10:55:10.658Z,98122.32
2019-05-22T10:57:41.010Z,98117.75
2019-05-22T11:00:12.992Z,98128.98
2019-05-22T11:02:41.841Z,98130.31
2019-05-22T11:05:10.470Z,98122.79
2019-05-22T11:07:39.025Z,98127.31
2019-05-22T11:10:08.640Z,98114.64
2019-05-22T11:12:36.941Z,98141.95
2019-05-22T11:15:07.365Z,98129.95
2019-05-22T11:17:36.517Z,98133.77
2019-05-22T11:20:06.449Z,98124.51
2019-05-22T11:22:36.583Z,98138.94
2019-05-22T11:25:10.081Z,98148.26
2019-05-22T11:27:39.305Z,98147.33
2019-05-22T11:30:09.856Z,98167.50
2019-05-22T11:32:38.226Z,98149.67
2019-05-22T11:35:08.745Z,98154.75
2019-05-22T11:37:37.621Z,98139.98
2019-05-22T11:40:07.470Z,98146.95
2019-05-22T11:42:36.047Z,98155.60
2019-05-22T11:45:11.247Z,98160.31
2019-05-22T11:47:39.623Z,98150.11
2019-05-22T11:50:10.355Z,98170.52
2019-05-22T11:52:38.750Z,98155.33
2019-05-22T11:55:08.399Z,98151.52
2019-05-22T11:57:38.060Z,98160.05
2019-05-22T12:00:09.287Z,98153.23
2019-05-22T12:02:38.947Z,98106.23
2019-05-22T12:05:10.277Z,98155.79
2019-05-22T12:07:42.151Z,98148.93
2019-05-22T12:10:12.704Z,98158.31
2019-05-22T12:12:41.528Z,98142.28
2019-05-22T12:15:10.494Z,98157.05
2019-05-22T12:17:39.259Z,98156.63
2019-05-22T12:20:08.603Z,98149.20
2019-05-22T12:22:37.439Z,98146.66
2019-05-22T12:25:07.381Z,98155.00
2019-05-22T12:27:35.769Z,98160.95
2019-05-22T12:30:05.773Z,98155.80
2019-05-22T12:32:34.263Z,98156.36
2019-05-22T12:35:03.278Z,98150.97
2019-05-22T12:37:32.181Z,98154.19
2019-05-22T12:40:00.713Z,98156.24
2019-05-22T12:42:29.004Z,98164.42
2019-05-22T12:44:57.695Z,98159.86
2019-05-22T12:47:26.856Z,98173.47
2019-05-22T12:49:55.817Z,98170.48
2019-05-22T12:52:24.366Z,98181.56
2019-05-22T12:54:53.428Z,98175.05
2019-05-22T12:57:22.561Z,98169.73
2019-05-22T12:59:51.927Z,98160.28
2019-05-22T13:02:20.292Z,98170.37
2019-05-22T13:04:49.270Z,98168.44
2019-05-22T13:07:18.324Z,98174.59
2019-05-22T13:09:47.164Z,98165.14
2019-05-22T13:12:15.942Z,98158.55
2019-05-22T13:14:45.175Z,98158.94
2019-05-22T13:17:15.734Z,98163.20
2019-05-22T13:19:44.674Z,98163.84
2019-05-22T13:22:16.627Z,98175.76
2019-05-22T13:24:44.931Z,98170.69
2019-05-22T13:27:15.710Z,98166.98
2019-05-22T13:29:44.357Z,98167.91
2019-05-22T13:32:14.986Z,98168.42
2019-05-22T13:34:43.432Z,98161.08
2019-05-22T13:37:11.784Z,98161.70
2019-05-22T13:39:40.769Z,98172.39
2019-05-22T13:42:09.135Z,98164.02
2019-05-22T13:44:38.092Z,98171.39
2019-05-22T13:47:07.463Z,98166.92
2019-05-22T13:49:38.074Z,98161.29
2019-05-22T13:52:06.649Z,98167.99
2019-05-22T13:54:35.449Z,98172.86
2019-05-22T13:57:04.285Z,98170.72
2019-05-22T13:59:32.570Z,98165.98
2019-05-22T14:02:00.958Z,98180.43
2019-05-22T14:04:29.549Z,98172.48
2019-05-22T14:06:58.297Z,98172.19
2019-05-22T14:09:26.896Z,98184.61
2019-05-22T14:11:56.242Z,98188.50
2019-05-22T14:14:24.914Z,98177.66
2019-05-22T14:16:53.962Z,98180.95
2019-05-22T14:19:23.499Z,98178.09
2019-05-22T14:21:52.296Z,98199.34
2019-05-22T14:24:20.945Z,98189.14
2019-05-22T14:26:50.894Z,98190.34
2019-05-22T14:29:19.576Z,98178.20
2019-05-22T14:31:48.009Z,98179.27
2019-05-22T14:34:17.018Z,98181.33
2019-05-22T14:36:45.621Z,98170.75
2019-05-22T14:39:15.834Z,98171.63
2019-05-22T14:41:44.222Z,98183.92
2019-05-22T14:44:12.531Z,98177.55
2019-05-22T14:46:40.912Z,98180.43
2019-05-22T14:49:09.280Z,98182.75
2019-05-22T14:51:37.896Z,98171.01
2019-05-22T14:54:08.116Z,98179.66
2019-05-22T14:56:37.487Z,98187.00
2019-05-22T14:59:06.191Z,98188.08
2019-05-22T15:01:34.734Z,98185.38
2019-05-22T15:04:03.766Z,98175.22
2019-05-22T15:06:32.512Z,98176.12
2019-05-22T15:09:00.876Z,98172.78
2019-05-22T15:11:29.407Z,98187.28
2019-05-22T15:13:57.998Z,98208.77
2019-05-22T15:16:26.431Z,98186.95
2019-05-22T15:18:54.887Z,98191.70
2019-05-22T15:21:24.689Z,98186.48
2019-05-22T15:23:53.656Z,98196.78
2019-05-22T15:26:21.959Z,98197.45
2019-05-22T15:28:50.371Z,98188.83
2019-05-22T15:31:18.897Z,98186.77
2019-05-22T15:33:47.265Z,98188.58
2019-05-22T15:36:16.929Z,98182.28
2019-05-22T15:38:46.396Z,98198.11
2019-05-22T15:41:15.332Z,98192.03
2019-05-22T15:43:50.445Z,98186.48
2019-05-22T15:46:16.824Z,98191.45
2019-05-22T15:48:47.532Z,98193.09
2019-05-22T15:51:18.430Z,98191.30
2019-05-22T15:53:47.991Z,98186.50
2019-05-22T15:56:16.390Z,98187.22
2019-05-22T15:58:47.216Z,98190.62
2019-05-22T16:01:17.744Z,98189.23
2019-05-22T16:03:48.276Z,98198.62
2019-05-22T16:06:17.196Z,98204.66
2019-05-22T16:08:46.311Z,98196.11
2019-05-22T16:11:15.271Z,98205.58
2019-05-22T16:13:45.108Z,98206.16
2019-05-22T16:16:15.030Z,98213.64
2019-05-22T16:18:44.896Z,98223.03
2019-05-22T16:21:13.388Z,98210.59
2019-05-22T16:23:42.939Z,98216.06
2019-05-22T16:26:12.807Z,98220.67
2019-05-22T16:28:43.817Z,98211.38
2019-05-22T16:31:13.752Z,98217.58
2019-05-22T16:33:43.988Z,98218.13
2019-05-22T16:36:13.622Z,98221.09
2019-05-22T16:38:42.566Z,98225.36
2019-05-22T16:41:11.803Z,98217.13
2019-05-22T16:43:49.411Z,98221.80
2019-05-22T16:46:15.190Z,98232.52
2019-05-22T16:48:44.695Z,98226.19
2019-05-22T16:51:15.793Z,98223.59
2019-05-22T16:53:50.209Z,98233.70
2019-05-22T16:56:20.614Z,98227.95
2019-05-22T16:58:49.739Z,98230.02
2019-05-22T17:01:18.857Z,98232.76
2019-05-22T17:03:49.410Z,98237.65
2019-05-22T17:06:18.254Z,98238.34
2019-05-22T17:08:47.374Z,98235.99
2019-05-22T17:11:15.823Z,98226.78
2019-05-22T17:13:45.343Z,98234.64
2019-05-22T17:16:15.503Z,98242.84
2019-05-22T17:18:47.978Z,98245.67
2019-05-22T17:21:15.285Z,98250.77
2019-05-22T17:23:44.733Z,98244.01
2019-05-22T17:26:13.527Z,98199.17
2019-05-22T17:28:41.945Z,98241.67
2019-05-22T17:31:11.386Z,98239.92
2019-05-22T17:33:40.446Z,98237.42
2019-05-22T17:36:09.229Z,98245.30
2019-05-22T17:38:38.811Z,98245.08
2019-05-22T17:41:08.464Z,98241.37
2019-05-22T17:43:37.324Z,98249.34
2019-05-22T17:46:06.398Z,98245.03
2019-05-22T17:48:35.374Z,98242.44
2019-05-22T17:51:05.238Z,98249.86
2019-05-22T17:53:34.524Z,98247.13
2019-05-22T17:56:03.939Z,98243.80
2019-05-22T17:58:32.333Z,98249.91
2019-05-22T18:01:02.039Z,98261.41
2019-05-22T18:03:31.436Z,98245.91
2019-05-22T18:06:00.779Z,98245.36
2019-05-22T18:08:29.149Z,98251.75
2019-05-22T18:10:58.408Z,98254.70
2019-05-22T18:13:30.308Z,98260.59
2019-05-22T18:15:59.106Z,98252.02
2019-05-22T18:18:27.440Z,98256.98
2019-05-22T18:20:56.960Z,98269.91
2019-05-22T18:23:25.327Z,98261.78
2019-05-22T18:25:53.998Z,98274.55
2019-05-22T18:28:22.516Z,98267.80
2019-05-22T18:30:50.992Z,98273.37
2019-05-22T18:33:19.490Z,98275.50
2019-05-22T18:35:48.129Z,98281.30
2019-05-22T18:38:16.518Z,98282.02
2019-05-22T18:40:45.407Z,98290.78
2019-05-22T18:43:14.005Z,98289.20
2019-05-22T18:45:42.726Z,98289.59
2019-05-22T18:48:11.237Z,98296.09
2019-05-22T18:50:39.891Z,98295.05
2019-05-22T18:53:08.316Z,98296.41
2019-05-22T18:55:37.184Z,98297.62
2019-05-22T18:58:05.769Z,98304.98
2019-05-22T19:00:34.443Z,98298.44
2019-05-22T19:03:03.401Z,98310.69
2019-05-22T19:05:32.830Z,98306.17
2019-05-22T19:08:01.289Z,98308.92
2019-05-22T19:10:30.127Z,98304.98
2019-05-22T19:12:58.725Z,98325.72
2019-05-22T19:15:28.367Z,98320.73
2019-05-22T19:17:56.753Z,98319.17
2019-05-22T19:20:25.601Z,98326.52
2019-05-22T19:23:00.262Z,98329.58
2019-05-22T19:25:24.503Z,98332.18
2019-05-22T19:27:53.467Z,98332.77
2019-05-22T19:30:22.993Z,98327.05
2019-05-22T19:32:52.319Z,98336.73
2019-05-22T19:35:20.702Z,98329.84
2019-05-22T19:37:50.539Z,98333.50
2019-05-22T19:40:19.715Z,98336.80
2019-05-22T19:42:48.261Z,98343.98
2019-05-22T19:45:17.057Z,98338.63
2019-05-22T19:47:51.116Z,98337.55
2019-05-22T19:50:23.363Z,98331.48
2019-05-22T19:52:53.073Z,98339.52
2019-05-22T19:55:22.709Z,98337.34
2019-05-22T19:57:51.754Z,98337.34
2019-05-22T20:00:22.618Z,98338.94
2019-05-22T20:02:51.389Z,98339.66
2019-05-22T20:05:21.787Z,98338.08
2019-05-22T20:07:50.275Z,98339.77
2019-05-22T20:10:18.958Z,98345.86
2019-05-22T20:12:47.639Z,98343.42
2019-05-22T20:15:17.179Z,98338.64
2019-05-22T20:17:47.395Z,98345.98
2019-05-22T20:20:17.593Z,98341.36
2019-05-22T20:22:46.332Z,98349.58
2019-05-22T20:25:17.128Z,98352.91
2019-05-22T20:27:45.798Z,98355.31
2019-05-22T20:30:15.971Z,98348.81
2019-05-22T20:32:45.061Z,98352.20
2019-05-22T20:35:14.613Z,98348.33
2019-05-22T20:37:45.898Z,98343.95
2019-05-22T20:40:14.577Z,98347.02
2019-05-22T20:42:43.225Z,98343.69
2019-05-22T20:45:13.129Z,98348.06
2019-05-22T20:47:42.181Z,98347.90
2019-05-22T20:50:11.401Z,98347.77
2019-05-22T20:52:40.064Z,98344.05
2019-05-22T20:55:09.561Z,98355.43
2019-05-22T20:57:38.802Z,98348.20
2019-05-22T21:00:10.112Z,98350.31
2019-05-22T21:02:40.714Z,98332.34
2019-05-22T21:05:11.020Z,98361.73
2019-05-22T21:07:43.286Z,98355.72
2019-05-22T21:10:12.589Z,98360.52
2019-05-22T21:12:41.017Z,98356.29
2019-05-22T21:15:10.550Z,98365.34
2019-05-22T21:17:39.906Z,98363.77
2019-05-22T21:20:11.317Z,98372.61
2019-05-22T21:22:41.300Z,98373.91
2019-05-22T21:25:12.146Z,98367.64
2019-05-22T21:27:42.683Z,98366.25
2019-05-22T21:30:12.920Z,98363.24
2019-05-22T21:32:41.226Z,98352.80
2019-05-22T21:35:10.297Z,98364.88
2019-05-22T21:37:39.528Z,98362.65
2019-05-22T21:40:09.211Z,98355.70
2019-05-22T21:42:41.231Z,98359.72
2019-05-22T21:45:11.112Z,98360.18
2019-05-22T21:47:41.199Z,98361.77
2019-05-22T21:50:10.753Z,98358.95
2019-05-22T21:52:40.426Z,98364.64
2019-05-22T21:55:11.447Z,98360.15
2019-05-22T21:57:40.487Z,98363.55
2019-05-22T22:00:13.589Z,98362.95
2019-05-22T22:02:45.597Z,98371.72
2019-05-22T22:05:15.468Z,98358.84
2019-05-22T22:07:44.330Z,98343.42
2019-05-22T22:10:13.404Z,98366.66
2019-05-22T22:12:42.235Z,98359.50
2019-05-22T22:15:12.438Z,98366.42
2019-05-22T22:17:42.517Z,98370.42
2019-05-22T22:20:12.148Z,98359.98
2019-05-22T22:22:42.435Z,98354.15
2019-05-22T22:25:13.098Z,98361.45
2019-05-22T22:27:42.376Z,98354.25
2019-05-22T22:30:17.715Z,98362.55
2019-05-22T22:32:46.032Z,98355.95
2019-05-22T22:35:16.048Z,98357.53
2019-05-22T22:37:44.825Z,98366.30
2019-05-22T22:40:16.066Z,98369.76
2019-05-22T22:42:47.006Z,98361.80
2019-05-22T22:45:36.189Z,98352.94
2019-05-22T22:48:06.516Z,98359.49
2019-05-22T22:50:36.359Z,98359.37
2019-05-22T22:53:06.296Z,98360.75
2019-05-22T22:55:36.764Z,98359.52
2019-05-22T22:58:16.535Z,98361.66
2019-05-22T23:00:40.404Z,98371.58
2019-05-22T23:03:11.189Z,98366.92
2019-05-22T23:05:41.719Z,98366.92
2019-05-22T23:08:13.246Z,98375.55
2019-05-22T23:10:42.483Z,98374.25
2019-05-22T23:13:12.421Z,98379.84
2019-05-22T23:15:41.363Z,98383.38
2019-05-22T23:18:10.118Z,98377.83
2019-05-22T23:20:38.768Z,98380.05
2019-05-22T23:23:07.117Z,98382.44
2019-05-22T23:25:37.355Z,98390.11
2019-05-22T23:28:05.656Z,98391.96
2019-05-22T23:30:34.113Z,98390.78
2019-05-22T23:33:03.182Z,98390.63
2019-05-22T23:35:31.910Z,98388.91
2019-05-22T23:38:01.842Z,98393.72
2019-05-22T23:40:31.847Z,98386.81
2019-05-22T23:43:02.495Z,98379.48
2019-05-22T23:45:30.959Z,98385.78
2019-05-22T23:48:27.545Z,98393.23
2019-05-22T23:50:56.483Z,98391.27
2019-05-22T23:53:25.177Z,98393.16
2019-05-22T23:55:54.111Z,98389.59
2019-05-22T23:58:23.079Z,98396.64
